Terminal Aerodrome Forecast
Issued by NWS

Home | Current Version | Previous Version | Text Only | Print | Product List | Glossary On
Versions: 1 2 3 4 5 6 7 8 9 10 11 12 13
000
FTUS45 KABQ 191731
TAFAEG
TAF
KAEG 191731Z 1918/2018 17008KT P6SM SCT100
     FM200000 VRB15G25KT P6SM VCTS BKN100CB
     FM200300 14011G21KT P6SM BKN120
     FM200600 15005KT P6SM BKN130
     FM201400 27007KT P6SM VCSH OVC090=

USA.gov is the U.S. government's official web portal to all federal, state and local government web resources and services.